sensor_id;sensor_type;location;lat;lon;timestamp;temperature;humidity
22765;DHT22;11549;50.852;3.816;2022-12-07T00:01:43;6.50;99.90
22765;DHT22;11549;50.852;3.816;2022-12-07T00:04:15;6.40;99.90
22765;DHT22;11549;50.852;3.816;2022-12-07T00:06:44;6.40;99.90
22765;DHT22;11549;50.852;3.816;2022-12-07T00:09:14;6.30;99.90
22765;DHT22;11549;50.852;3.816;2022-12-07T00:11:48;6.30;99.90
22765;DHT22;11549;50.852;3.816;2022-12-07T00:14:17;6.30;99.90
22765;DHT22;11549;50.852;3.816;2022-12-07T00:16:48;6.20;99.90
22765;DHT22;11549;50.852;3.816;2022-12-07T00:19:18;6.20;99.90
22765;DHT22;11549;50.852;3.816;2022-12-07T00:21:46;6.30;99.90
22765;DHT22;11549;50.852;3.816;2022-12-07T00:24:15;6.30;99.90
22765;DHT22;11549;50.852;3.816;2022-12-07T00:26:43;6.40;99.90
22765;DHT22;11549;50.852;3.816;2022-12-07T00:29:15;6.40;99.90
22765;DHT22;11549;50.852;3.816;2022-12-07T00:31:44;6.40;99.90
22765;DHT22;11549;50.852;3.816;2022-12-07T00:34:14;6.30;99.90
22765;DHT22;11549;50.852;3.816;2022-12-07T00:36:46;6.30;99.90
22765;DHT22;11549;50.852;3.816;2022-12-07T00:39:14;6.30;99.90
22765;DHT22;11549;50.852;3.816;2022-12-07T00:41:42;6.30;99.90
22765;DHT22;11549;50.852;3.816;2022-12-07T00:44:11;6.30;99.90
22765;DHT22;11549;50.852;3.816;2022-12-07T00:46:39;6.30;99.90
22765;DHT22;11549;50.852;3.816;2022-12-07T00:49:08;6.30;99.90
22765;DHT22;11549;50.852;3.816;2022-12-07T00:51:36;6.20;99.90
22765;DHT22;11549;50.852;3.816;2022-12-07T00:54:06;6.20;99.90
22765;DHT22;11549;50.852;3.816;2022-12-07T00:56:34;6.20;99.90
22765;DHT22;11549;50.852;3.816;2022-12-07T00:59:04;6.30;99.90
22765;DHT22;11549;50.852;3.816;2022-12-07T01:01:35;6.30;99.90
22765;DHT22;11549;50.852;3.816;2022-12-07T01:04:04;6.30;99.90
22765;DHT22;11549;50.852;3.816;2022-12-07T01:06:33;6.30;99.90
22765;DHT22;11549;50.852;3.816;2022-12-07T01:09:02;6.30;99.90
22765;DHT22;11549;50.852;3.816;2022-12-07T01:11:32;6.30;99.90
22765;DHT22;11549;50.852;3.816;2022-12-07T01:14:00;6.30;99.90
22765;DHT22;11549;50.852;3.816;2022-12-07T01:16:30;6.30;99.90
22765;DHT22;11549;50.852;3.816;2022-12-07T01:19:00;6.30;99.90
22765;DHT22;11549;50.852;3.816;2022-12-07T01:21:30;6.40;99.90
22765;DHT22;11549;50.852;3.816;2022-12-07T01:24:02;6.30;99.90
22765;DHT22;11549;50.852;3.816;2022-12-07T01:26:32;6.30;99.90
22765;DHT22;11549;50.852;3.816;2022-12-07T01:29:00;6.40;99.90
22765;DHT22;11549;50.852;3.816;2022-12-07T01:31:29;6.30;99.90
22765;DHT22;11549;50.852;3.816;2022-12-07T01:33:59;6.40;99.90
22765;DHT22;11549;50.852;3.816;2022-12-07T01:36:29;6.30;99.90
22765;DHT22;11549;50.852;3.816;2022-12-07T01:39:00;6.10;99.90
22765;DHT22;11549;50.852;3.816;2022-12-07T01:41:30;6.00;99.90
22765;DHT22;11549;50.852;3.816;2022-12-07T01:44:24;6.00;99.90
22765;DHT22;11549;50.852;3.816;2022-12-07T01:46:54;5.90;99.90
22765;DHT22;11549;50.852;3.816;2022-12-07T01:49:27;5.90;99.90
22765;DHT22;11549;50.852;3.816;2022-12-07T01:52:03;5.90;99.90
22765;DHT22;11549;50.852;3.816;2022-12-07T01:54:36;5.90;99.90
22765;DHT22;11549;50.852;3.816;2022-12-07T01:57:06;5.90;99.90
22765;DHT22;11549;50.852;3.816;2022-12-07T01:59:37;5.90;99.90
22765;DHT22;11549;50.852;3.816;2022-12-07T02:02:10;5.90;99.90
22765;DHT22;11549;50.852;3.816;2022-12-07T02:04:40;5.80;99.90
22765;DHT22;11549;50.852;3.816;2022-12-07T02:07:08;5.80;99.90
22765;DHT22;11549;50.852;3.816;2022-12-07T02:09:37;5.80;99.90
22765;DHT22;11549;50.852;3.816;2022-12-07T02:12:05;5.80;99.90
22765;DHT22;11549;50.852;3.816;2022-12-07T02:14:34;5.80;99.90
22765;DHT22;11549;50.852;3.816;2022-12-07T02:17:10;5.80;99.90
22765;DHT22;11549;50.852;3.816;2022-12-07T02:20:03;5.80;99.90
22765;DHT22;11549;50.852;3.816;2022-12-07T02:29:13;5.90;99.90
22765;DHT22;11549;50.852;3.816;2022-12-07T02:31:46;5.80;99.90
22765;DHT22;11549;50.852;3.816;2022-12-07T02:34:22;5.70;99.90
22765;DHT22;11549;50.852;3.816;2022-12-07T02:36:55;5.80;99.90
22765;DHT22;11549;50.852;3.816;2022-12-07T02:39:31;5.70;99.90
22765;DHT22;11549;50.852;3.816;2022-12-07T02:42:06;5.70;99.90
22765;DHT22;11549;50.852;3.816;2022-12-07T02:44:39;5.50;99.90
22765;DHT22;11549;50.852;3.816;2022-12-07T02:47:11;5.60;99.90
22765;DHT22;11549;50.852;3.816;2022-12-07T02:49:40;5.60;99.90
22765;DHT22;11549;50.852;3.816;2022-12-07T02:52:09;5.60;99.90
22765;DHT22;11549;50.852;3.816;2022-12-07T02:54:37;5.60;99.90
22765;DHT22;11549;50.852;3.816;2022-12-07T02:57:17;5.60;99.90
22765;DHT22;11549;50.852;3.816;2022-12-07T02:59:59;5.50;99.90
22765;DHT22;11549;50.852;3.816;2022-12-07T03:02:38;5.50;99.90
22765;DHT22;11549;50.852;3.816;2022-12-07T03:05:21;5.50;99.90
22765;DHT22;11549;50.852;3.816;2022-12-07T03:08:00;5.50;99.90
22765;DHT22;11549;50.852;3.816;2022-12-07T03:10:35;5.40;99.90
22765;DHT22;11549;50.852;3.816;2022-12-07T03:13:12;5.30;99.90
22765;DHT22;11549;50.852;3.816;2022-12-07T03:15:51;5.30;99.90
22765;DHT22;11549;50.852;3.816;2022-12-07T03:18:23;5.40;99.90
22765;DHT22;11549;50.852;3.816;2022-12-07T03:20:55;5.50;99.90
22765;DHT22;11549;50.852;3.816;2022-12-07T03:23:25;5.40;99.90
22765;DHT22;11549;50.852;3.816;2022-12-07T03:25:58;5.40;99.90
22765;DHT22;11549;50.852;3.816;2022-12-07T03:28:32;5.40;99.90
22765;DHT22;11549;50.852;3.816;2022-12-07T03:31:07;5.40;99.90
22765;DHT22;11549;50.852;3.816;2022-12-07T03:33:40;5.30;99.90
22765;DHT22;11549;50.852;3.816;2022-12-07T03:36:14;5.40;99.90
22765;DHT22;11549;50.852;3.816;2022-12-07T03:38:48;5.50;99.90
22765;DHT22;11549;50.852;3.816;2022-12-07T03:41:22;5.60;99.90
22765;DHT22;11549;50.852;3.816;2022-12-07T03:43:51;5.60;99.90
22765;DHT22;11549;50.852;3.816;2022-12-07T03:46:27;5.60;99.90
22765;DHT22;11549;50.852;3.816;2022-12-07T03:49:04;5.50;99.90
22765;DHT22;11549;50.852;3.816;2022-12-07T03:51:39;5.50;99.90
22765;DHT22;11549;50.852;3.816;2022-12-07T03:54:13;5.50;99.90
22765;DHT22;11549;50.852;3.816;2022-12-07T03:56:44;5.50;99.90
22765;DHT22;11549;50.852;3.816;2022-12-07T03:59:14;5.50;99.90
22765;DHT22;11549;50.852;3.816;2022-12-07T04:01:51;5.60;99.90
22765;DHT22;11549;50.852;3.816;2022-12-07T04:04:21;5.60;99.90
22765;DHT22;11549;50.852;3.816;2022-12-07T04:06:49;5.60;99.90
22765;DHT22;11549;50.852;3.816;2022-12-07T04:09:18;5.50;99.90
22765;DHT22;11549;50.852;3.816;2022-12-07T04:11:46;5.60;99.90
22765;DHT22;11549;50.852;3.816;2022-12-07T04:14:14;5.60;99.90
22765;DHT22;11549;50.852;3.816;2022-12-07T04:16:53;5.50;99.90
22765;DHT22;11549;50.852;3.816;2022-12-07T04:19:25;5.50;99.90
22765;DHT22;11549;50.852;3.816;2022-12-07T04:21:54;5.50;99.90
22765;DHT22;11549;50.852;3.816;2022-12-07T04:24:22;5.40;99.90
22765;DHT22;11549;50.852;3.816;2022-12-07T04:26:51;5.50;99.90
22765;DHT22;11549;50.852;3.816;2022-12-07T04:29:21;5.40;99.90
22765;DHT22;11549;50.852;3.816;2022-12-07T04:31:51;5.60;99.90
22765;DHT22;11549;50.852;3.816;2022-12-07T04:34:20;5.50;99.90
22765;DHT22;11549;50.852;3.816;2022-12-07T04:36:48;5.40;99.90
22765;DHT22;11549;50.852;3.816;2022-12-07T04:39:20;5.40;99.90
22765;DHT22;11549;50.852;3.816;2022-12-07T04:41:48;5.40;99.90
22765;DHT22;11549;50.852;3.816;2022-12-07T04:44:17;5.40;99.90
22765;DHT22;11549;50.852;3.816;2022-12-07T04:46:46;5.30;99.90
22765;DHT22;11549;50.852;3.816;2022-12-07T04:49:17;5.30;99.90
22765;DHT22;11549;50.852;3.816;2022-12-07T04:51:46;5.30;99.90
22765;DHT22;11549;50.852;3.816;2022-12-07T04:54:15;5.20;99.90
22765;DHT22;11549;50.852;3.816;2022-12-07T04:56:44;5.30;99.90
22765;DHT22;11549;50.852;3.816;2022-12-07T04:59:13;5.20;99.90
22765;DHT22;11549;50.852;3.816;2022-12-07T05:01:42;5.20;99.90
22765;DHT22;11549;50.852;3.816;2022-12-07T05:04:11;5.20;99.90
22765;DHT22;11549;50.852;3.816;2022-12-07T05:06:42;5.30;99.90
22765;DHT22;11549;50.852;3.816;2022-12-07T05:09:10;5.30;99.90
22765;DHT22;11549;50.852;3.816;2022-12-07T05:11:38;5.20;99.90
22765;DHT22;11549;50.852;3.816;2022-12-07T05:14:10;5.20;99.90
22765;DHT22;11549;50.852;3.816;2022-12-07T05:16:39;5.20;99.90
22765;DHT22;11549;50.852;3.816;2022-12-07T05:19:09;5.20;99.90
22765;DHT22;11549;50.852;3.816;2022-12-07T05:21:38;5.30;99.90
22765;DHT22;11549;50.852;3.816;2022-12-07T05:24:09;5.30;99.90
22765;DHT22;11549;50.852;3.816;2022-12-07T05:26:39;5.30;99.90
22765;DHT22;11549;50.852;3.816;2022-12-07T05:29:09;5.20;99.90
22765;DHT22;11549;50.852;3.816;2022-12-07T05:31:38;5.20;99.90
22765;DHT22;11549;50.852;3.816;2022-12-07T05:34:07;5.20;99.90
22765;DHT22;11549;50.852;3.816;2022-12-07T05:36:36;5.20;99.90
22765;DHT22;11549;50.852;3.816;2022-12-07T05:39:04;5.30;99.90
22765;DHT22;11549;50.852;3.816;2022-12-07T05:41:34;5.30;99.90
22765;DHT22;11549;50.852;3.816;2022-12-07T05:44:19;5.30;99.90
22765;DHT22;11549;50.852;3.816;2022-12-07T05:46:48;5.50;99.90
22765;DHT22;11549;50.852;3.816;2022-12-07T05:49:16;5.60;99.90
22765;DHT22;11549;50.852;3.816;2022-12-07T05:51:45;5.50;99.90
22765;DHT22;11549;50.852;3.816;2022-12-07T05:54:13;5.40;99.90
22765;DHT22;11549;50.852;3.816;2022-12-07T05:56:43;5.50;99.90
22765;DHT22;11549;50.852;3.816;2022-12-07T05:59:11;5.40;99.90
22765;DHT22;11549;50.852;3.816;2022-12-07T06:01:52;5.50;99.90
22765;DHT22;11549;50.852;3.816;2022-12-07T06:04:21;5.60;99.90
22765;DHT22;11549;50.852;3.816;2022-12-07T06:06:49;5.60;99.90
22765;DHT22;11549;50.852;3.816;2022-12-07T06:09:18;5.60;99.90
22765;DHT22;11549;50.852;3.816;2022-12-07T06:11:48;5.60;99.90
22765;DHT22;11549;50.852;3.816;2022-12-07T06:14:35;5.60;99.90
22765;DHT22;11549;50.852;3.816;2022-12-07T06:17:03;5.50;99.90
22765;DHT22;11549;50.852;3.816;2022-12-07T06:19:32;5.40;99.90
22765;DHT22;11549;50.852;3.816;2022-12-07T06:22:00;5.40;99.90
22765;DHT22;11549;50.852;3.816;2022-12-07T06:24:29;5.30;99.90
22765;DHT22;11549;50.852;3.816;2022-12-07T06:26:59;5.40;99.90
22765;DHT22;11549;50.852;3.816;2022-12-07T06:29:27;5.30;99.90
22765;DHT22;11549;50.852;3.816;2022-12-07T06:31:56;5.30;99.90
22765;DHT22;11549;50.852;3.816;2022-12-07T06:34:25;5.20;99.90
22765;DHT22;11549;50.852;3.816;2022-12-07T06:36:54;5.20;99.90
22765;DHT22;11549;50.852;3.816;2022-12-07T06:39:27;5.10;99.90
22765;DHT22;11549;50.852;3.816;2022-12-07T06:41:56;5.10;99.90
22765;DHT22;11549;50.852;3.816;2022-12-07T06:44:26;5.10;99.90
22765;DHT22;11549;50.852;3.816;2022-12-07T06:46:55;5.10;99.90
22765;DHT22;11549;50.852;3.816;2022-12-07T06:49:43;5.10;99.90
22765;DHT22;11549;50.852;3.816;2022-12-07T06:52:11;5.20;99.90
22765;DHT22;11549;50.852;3.816;2022-12-07T06:54:40;5.20;99.90
22765;DHT22;11549;50.852;3.816;2022-12-07T06:57:08;5.10;99.90
22765;DHT22;11549;50.852;3.816;2022-12-07T06:59:38;5.10;99.90
22765;DHT22;11549;50.852;3.816;2022-12-07T07:02:08;5.10;99.90
22765;DHT22;11549;50.852;3.816;2022-12-07T07:04:36;5.20;99.90
22765;DHT22;11549;50.852;3.816;2022-12-07T07:07:04;5.20;99.90
22765;DHT22;11549;50.852;3.816;2022-12-07T07:09:33;5.10;99.90
22765;DHT22;11549;50.852;3.816;2022-12-07T07:12:01;5.10;99.90
22765;DHT22;11549;50.852;3.816;2022-12-07T07:14:30;5.10;99.90
22765;DHT22;11549;50.852;3.816;2022-12-07T07:17:00;5.10;99.90
22765;DHT22;11549;50.852;3.816;2022-12-07T07:19:28;5.10;99.90
22765;DHT22;11549;50.852;3.816;2022-12-07T07:21:56;5.10;99.90
22765;DHT22;11549;50.852;3.816;2022-12-07T07:24:25;5.10;99.90
22765;DHT22;11549;50.852;3.816;2022-12-07T07:26:53;5.10;99.90
22765;DHT22;11549;50.852;3.816;2022-12-07T07:29:21;5.10;99.90
22765;DHT22;11549;50.852;3.816;2022-12-07T07:31:50;5.10;99.90
22765;DHT22;11549;50.852;3.816;2022-12-07T07:34:19;5.20;99.90
22765;DHT22;11549;50.852;3.816;2022-12-07T07:36:48;5.20;99.90
22765;DHT22;11549;50.852;3.816;2022-12-07T07:39:16;5.30;99.90
22765;DHT22;11549;50.852;3.816;2022-12-07T07:41:44;5.30;99.90
22765;DHT22;11549;50.852;3.816;2022-12-07T07:44:13;5.40;99.90
22765;DHT22;11549;50.852;3.816;2022-12-07T07:46:42;5.50;99.90
22765;DHT22;11549;50.852;3.816;2022-12-07T07:49:10;5.50;99.90
22765;DHT22;11549;50.852;3.816;2022-12-07T07:51:40;5.50;99.90
22765;DHT22;11549;50.852;3.816;2022-12-07T07:54:08;5.50;99.90
22765;DHT22;11549;50.852;3.816;2022-12-07T07:56:37;5.50;99.90
22765;DHT22;11549;50.852;3.816;2022-12-07T07:59:05;5.50;99.90
22765;DHT22;11549;50.852;3.816;2022-12-07T08:01:34;5.50;99.90
22765;DHT22;11549;50.852;3.816;2022-12-07T08:04:02;5.50;99.90
22765;DHT22;11549;50.852;3.816;2022-12-07T08:06:31;5.50;99.90
22765;DHT22;11549;50.852;3.816;2022-12-07T08:09:01;5.50;99.90
22765;DHT22;11549;50.852;3.816;2022-12-07T08:11:29;5.60;99.90
22765;DHT22;11549;50.852;3.816;2022-12-07T08:13:57;5.70;99.90
22765;DHT22;11549;50.852;3.816;2022-12-07T08:16:26;5.70;99.90
22765;DHT22;11549;50.852;3.816;2022-12-07T08:18:54;5.60;99.90
22765;DHT22;11549;50.852;3.816;2022-12-07T08:21:23;5.70;99.90
22765;DHT22;11549;50.852;3.816;2022-12-07T08:23:51;5.80;99.90
22765;DHT22;11549;50.852;3.816;2022-12-07T08:26:21;5.90;99.90
22765;DHT22;11549;50.852;3.816;2022-12-07T08:28:49;6.00;99.90
22765;DHT22;11549;50.852;3.816;2022-12-07T08:31:18;6.10;99.90
22765;DHT22;11549;50.852;3.816;2022-12-07T08:33:47;6.00;99.90
22765;DHT22;11549;50.852;3.816;2022-12-07T08:36:16;6.00;99.90
22765;DHT22;11549;50.852;3.816;2022-12-07T08:38:44;6.00;99.90
22765;DHT22;11549;50.852;3.816;2022-12-07T08:41:35;6.00;99.90
22765;DHT22;11549;50.852;3.816;2022-12-07T08:44:04;6.10;99.90
22765;DHT22;11549;50.852;3.816;2022-12-07T08:46:34;6.10;99.90
22765;DHT22;11549;50.852;3.816;2022-12-07T08:49:06;6.20;99.90
22765;DHT22;11549;50.852;3.816;2022-12-07T08:51:36;6.20;99.90
22765;DHT22;11549;50.852;3.816;2022-12-07T08:54:07;6.30;99.90
22765;DHT22;11549;50.852;3.816;2022-12-07T08:56:38;6.30;99.90
22765;DHT22;11549;50.852;3.816;2022-12-07T08:59:07;6.30;99.90
22765;DHT22;11549;50.852;3.816;2022-12-07T09:01:36;6.30;99.90
22765;DHT22;11549;50.852;3.816;2022-12-07T09:04:04;6.50;99.90
22765;DHT22;11549;50.852;3.816;2022-12-07T09:06:33;6.60;99.90
22765;DHT22;11549;50.852;3.816;2022-12-07T09:09:02;6.80;99.90
22765;DHT22;11549;50.852;3.816;2022-12-07T09:11:31;6.80;99.90
22765;DHT22;11549;50.852;3.816;2022-12-07T09:14:00;6.90;99.90
22765;DHT22;11549;50.852;3.816;2022-12-07T09:16:29;6.90;99.90
22765;DHT22;11549;50.852;3.816;2022-12-07T09:18:57;7.10;99.90
22765;DHT22;11549;50.852;3.816;2022-12-07T09:21:26;7.20;99.90
22765;DHT22;11549;50.852;3.816;2022-12-07T09:23:54;7.30;99.90
22765;DHT22;11549;50.852;3.816;2022-12-07T09:26:23;7.30;99.90
22765;DHT22;11549;50.852;3.816;2022-12-07T09:28:51;7.30;99.90
22765;DHT22;11549;50.852;3.816;2022-12-07T09:31:21;7.20;99.90
22765;DHT22;11549;50.852;3.816;2022-12-07T09:33:55;7.30;99.90
22765;DHT22;11549;50.852;3.816;2022-12-07T09:36:24;7.50;99.90
22765;DHT22;11549;50.852;3.816;2022-12-07T09:38:53;7.90;99.90
22765;DHT22;11549;50.852;3.816;2022-12-07T09:41:23;8.20;99.90
22765;DHT22;11549;50.852;3.816;2022-12-07T09:43:52;8.60;99.90
22765;DHT22;11549;50.852;3.816;2022-12-07T09:46:23;9.20;99.90
22765;DHT22;11549;50.852;3.816;2022-12-07T09:48:51;9.50;99.90
22765;DHT22;11549;50.852;3.816;2022-12-07T09:51:21;9.60;99.90
22765;DHT22;11549;50.852;3.816;2022-12-07T09:53:53;10.00;99.90
22765;DHT22;11549;50.852;3.816;2022-12-07T09:56:23;10.50;99.90
22765;DHT22;11549;50.852;3.816;2022-12-07T09:58:57;10.70;99.90
22765;DHT22;11549;50.852;3.816;2022-12-07T10:01:30;10.70;99.90
22765;DHT22;11549;50.852;3.816;2022-12-07T10:04:05;10.60;99.90
22765;DHT22;11549;50.852;3.816;2022-12-07T10:06:37;10.40;99.90
22765;DHT22;11549;50.852;3.816;2022-12-07T10:09:10;10.40;99.90
22765;DHT22;11549;50.852;3.816;2022-12-07T10:11:57;10.50;99.90
22765;DHT22;11549;50.852;3.816;2022-12-07T10:14:28;10.50;99.90
22765;DHT22;11549;50.852;3.816;2022-12-07T10:17:33;10.40;99.90
22765;DHT22;11549;50.852;3.816;2022-12-07T10:20:17;10.00;99.90
22765;DHT22;11549;50.852;3.816;2022-12-07T10:23:00;9.60;99.90
22765;DHT22;11549;50.852;3.816;2022-12-07T10:25:31;9.40;99.90
22765;DHT22;11549;50.852;3.816;2022-12-07T10:30:52;9.20;99.90
22765;DHT22;11549;50.852;3.816;2022-12-07T10:33:34;9.20;99.90
22765;DHT22;11549;50.852;3.816;2022-12-07T10:36:18;8.90;99.90
22765;DHT22;11549;50.852;3.816;2022-12-07T10:38:48;8.60;99.90
22765;DHT22;11549;50.852;3.816;2022-12-07T10:41:17;8.40;99.90
22765;DHT22;11549;50.852;3.816;2022-12-07T10:43:51;8.30;99.90
22765;DHT22;11549;50.852;3.816;2022-12-07T10:53:22;8.30;99.90
22765;DHT22;11549;50.852;3.816;2022-12-07T10:56:11;8.30;99.90
22765;DHT22;11549;50.852;3.816;2022-12-07T10:58:58;8.30;99.90
22765;DHT22;11549;50.852;3.816;2022-12-07T11:01:33;8.20;99.90
22765;DHT22;11549;50.852;3.816;2022-12-07T11:04:18;8.30;99.90
22765;DHT22;11549;50.852;3.816;2022-12-07T11:06:54;8.50;99.90
22765;DHT22;11549;50.852;3.816;2022-12-07T11:12:50;8.60;99.90
22765;DHT22;11549;50.852;3.816;2022-12-07T11:15:24;8.80;99.90
22765;DHT22;11549;50.852;3.816;2022-12-07T11:17:58;8.90;99.90
22765;DHT22;11549;50.852;3.816;2022-12-07T11:20:38;9.00;99.90
22765;DHT22;11549;50.852;3.816;2022-12-07T11:23:18;8.90;99.90
22765;DHT22;11549;50.852;3.816;2022-12-07T11:25:56;8.90;99.90
22765;DHT22;11549;50.852;3.816;2022-12-07T11:28:38;8.90;99.90
22765;DHT22;11549;50.852;3.816;2022-12-07T11:31:13;8.90;99.90
22765;DHT22;11549;50.852;3.816;2022-12-07T11:33:57;9.00;99.90
22765;DHT22;11549;50.852;3.816;2022-12-07T11:36:37;9.00;99.90
22765;DHT22;11549;50.852;3.816;2022-12-07T11:39:16;8.90;99.90
22765;DHT22;11549;50.852;3.816;2022-12-07T11:41:54;8.90;99.90
22765;DHT22;11549;50.852;3.816;2022-12-07T11:44:27;8.90;99.90
22765;DHT22;11549;50.852;3.816;2022-12-07T11:47:04;8.80;99.90
22765;DHT22;11549;50.852;3.816;2022-12-07T11:49:41;8.70;99.90
22765;DHT22;11549;50.852;3.816;2022-12-07T11:52:18;8.70;99.90
22765;DHT22;11549;50.852;3.816;2022-12-07T11:54:51;8.80;99.90
22765;DHT22;11549;50.852;3.816;2022-12-07T11:57:25;8.80;99.90
22765;DHT22;11549;50.852;3.816;2022-12-07T12:00:00;8.70;99.90
22765;DHT22;11549;50.852;3.816;2022-12-07T12:02:36;8.60;99.90
22765;DHT22;11549;50.852;3.816;2022-12-07T12:05:14;8.50;99.90
22765;DHT22;11549;50.852;3.816;2022-12-07T12:07:44;8.50;99.90
22765;DHT22;11549;50.852;3.816;2022-12-07T12:10:40;8.60;99.90
22765;DHT22;11549;50.852;3.816;2022-12-07T12:17:00;8.70;99.90
22765;DHT22;11549;50.852;3.816;2022-12-07T12:19:35;8.60;99.90
22765;DHT22;11549;50.852;3.816;2022-12-07T12:22:12;8.70;99.90
22765;DHT22;11549;50.852;3.816;2022-12-07T12:24:44;8.50;99.90
22765;DHT22;11549;50.852;3.816;2022-12-07T12:27:20;8.50;99.90
22765;DHT22;11549;50.852;3.816;2022-12-07T12:29:55;8.50;99.90
22765;DHT22;11549;50.852;3.816;2022-12-07T12:32:33;8.70;99.90
22765;DHT22;11549;50.852;3.816;2022-12-07T12:35:20;8.70;99.90
22765;DHT22;11549;50.852;3.816;2022-12-07T12:37:52;8.90;99.90
22765;DHT22;11549;50.852;3.816;2022-12-07T12:40:41;9.10;99.90
22765;DHT22;11549;50.852;3.816;2022-12-07T12:43:48;9.30;99.90
22765;DHT22;11549;50.852;3.816;2022-12-07T12:46:51;9.30;99.90
22765;DHT22;11549;50.852;3.816;2022-12-07T12:52:52;9.30;99.90
22765;DHT22;11549;50.852;3.816;2022-12-07T12:58:43;9.10;99.90
22765;DHT22;11549;50.852;3.816;2022-12-07T13:01:41;9.10;99.90
22765;DHT22;11549;50.852;3.816;2022-12-07T13:10:24;8.80;99.90
22765;DHT22;11549;50.852;3.816;2022-12-07T13:12:56;8.70;99.90
22765;DHT22;11549;50.852;3.816;2022-12-07T13:15:36;8.60;99.90
22765;DHT22;11549;50.852;3.816;2022-12-07T13:18:23;8.70;99.90
22765;DHT22;11549;50.852;3.816;2022-12-07T13:20:55;8.70;99.90
22765;DHT22;11549;50.852;3.816;2022-12-07T13:23:26;8.90;99.90
22765;DHT22;11549;50.852;3.816;2022-12-07T13:26:03;8.80;99.90
22765;DHT22;11549;50.852;3.816;2022-12-07T13:28:37;8.80;99.90
22765;DHT22;11549;50.852;3.816;2022-12-07T13:31:21;8.70;99.90
22765;DHT22;11549;50.852;3.816;2022-12-07T13:33:52;8.60;99.90
22765;DHT22;11549;50.852;3.816;2022-12-07T13:36:26;8.40;99.90
22765;DHT22;11549;50.852;3.816;2022-12-07T13:38:56;8.30;99.90
22765;DHT22;11549;50.852;3.816;2022-12-07T13:41:27;8.20;99.90
22765;DHT22;11549;50.852;3.816;2022-12-07T13:44:01;8.10;99.90
22765;DHT22;11549;50.852;3.816;2022-12-07T13:46:35;8.20;99.90
22765;DHT22;11549;50.852;3.816;2022-12-07T13:49:19;8.20;99.90
22765;DHT22;11549;50.852;3.816;2022-12-07T13:51:50;8.10;99.90
22765;DHT22;11549;50.852;3.816;2022-12-07T13:54:20;8.00;99.90
22765;DHT22;11549;50.852;3.816;2022-12-07T13:56:50;8.10;99.90
22765;DHT22;11549;50.852;3.816;2022-12-07T13:59:21;8.10;99.90
22765;DHT22;11549;50.852;3.816;2022-12-07T14:01:52;8.00;99.90
22765;DHT22;11549;50.852;3.816;2022-12-07T14:04:31;8.00;99.90
22765;DHT22;11549;50.852;3.816;2022-12-07T14:09:54;8.10;99.90
22765;DHT22;11549;50.852;3.816;2022-12-07T14:12:22;8.10;99.90
22765;DHT22;11549;50.852;3.816;2022-12-07T14:14:51;8.10;99.90
22765;DHT22;11549;50.852;3.816;2022-12-07T14:17:22;8.00;99.90
22765;DHT22;11549;50.852;3.816;2022-12-07T14:19:52;8.10;99.90
22765;DHT22;11549;50.852;3.816;2022-12-07T14:22:26;8.00;99.90
22765;DHT22;11549;50.852;3.816;2022-12-07T14:24:59;8.10;99.90
22765;DHT22;11549;50.852;3.816;2022-12-07T14:27:32;8.00;99.90
22765;DHT22;11549;50.852;3.816;2022-12-07T14:30:03;8.00;99.90
22765;DHT22;11549;50.852;3.816;2022-12-07T14:32:34;8.00;99.90
22765;DHT22;11549;50.852;3.816;2022-12-07T14:35:08;7.90;99.90
22765;DHT22;11549;50.852;3.816;2022-12-07T14:37:40;7.90;99.90
22765;DHT22;11549;50.852;3.816;2022-12-07T14:40:13;7.80;99.90
22765;DHT22;11549;50.852;3.816;2022-12-07T14:42:42;7.80;99.90
22765;DHT22;11549;50.852;3.816;2022-12-07T14:45:14;7.70;99.90
22765;DHT22;11549;50.852;3.816;2022-12-07T14:47:44;7.80;99.90
22765;DHT22;11549;50.852;3.816;2022-12-07T14:50:37;7.80;99.90
22765;DHT22;11549;50.852;3.816;2022-12-07T14:53:30;7.80;99.90
22765;DHT22;11549;50.852;3.816;2022-12-07T14:55:59;7.80;99.90
22765;DHT22;11549;50.852;3.816;2022-12-07T14:58:28;7.80;99.90
22765;DHT22;11549;50.852;3.816;2022-12-07T15:00:56;7.90;99.90
22765;DHT22;11549;50.852;3.816;2022-12-07T15:03:25;7.80;99.90
22765;DHT22;11549;50.852;3.816;2022-12-07T15:05:53;7.80;99.90
22765;DHT22;11549;50.852;3.816;2022-12-07T15:08:22;7.70;99.90
22765;DHT22;11549;50.852;3.816;2022-12-07T15:10:51;7.60;99.90
22765;DHT22;11549;50.852;3.816;2022-12-07T15:13:20;7.70;99.90
22765;DHT22;11549;50.852;3.816;2022-12-07T15:16:09;7.70;99.90
22765;DHT22;11549;50.852;3.816;2022-12-07T15:18:39;7.50;99.90
22765;DHT22;11549;50.852;3.816;2022-12-07T15:21:24;7.50;99.90
22765;DHT22;11549;50.852;3.816;2022-12-07T15:23:53;7.40;99.90
22765;DHT22;11549;50.852;3.816;2022-12-07T15:26:23;7.40;99.90
22765;DHT22;11549;50.852;3.816;2022-12-07T15:28:53;7.30;99.90
22765;DHT22;11549;50.852;3.816;2022-12-07T15:31:22;7.10;99.90
22765;DHT22;11549;50.852;3.816;2022-12-07T15:34:10;7.20;99.90
22765;DHT22;11549;50.852;3.816;2022-12-07T15:36:38;7.10;99.90
22765;DHT22;11549;50.852;3.816;2022-12-07T15:39:07;7.00;99.90
22765;DHT22;11549;50.852;3.816;2022-12-07T15:41:42;7.00;99.90
22765;DHT22;11549;50.852;3.816;2022-12-07T15:44:12;7.00;99.90
22765;DHT22;11549;50.852;3.816;2022-12-07T15:46:58;7.00;99.90
22765;DHT22;11549;50.852;3.816;2022-12-07T15:49:27;7.00;99.90
22765;DHT22;11549;50.852;3.816;2022-12-07T15:51:58;7.20;99.90
22765;DHT22;11549;50.852;3.816;2022-12-07T15:54:27;7.10;99.90
22765;DHT22;11549;50.852;3.816;2022-12-07T15:56:58;7.10;99.90
22765;DHT22;11549;50.852;3.816;2022-12-07T15:59:27;7.10;99.90
22765;DHT22;11549;50.852;3.816;2022-12-07T16:01:56;7.10;99.90
22765;DHT22;11549;50.852;3.816;2022-12-07T16:04:27;7.00;99.90
22765;DHT22;11549;50.852;3.816;2022-12-07T16:06:55;6.90;99.90
22765;DHT22;11549;50.852;3.816;2022-12-07T16:09:24;6.90;99.90
22765;DHT22;11549;50.852;3.816;2022-12-07T16:11:52;6.90;99.90
22765;DHT22;11549;50.852;3.816;2022-12-07T16:14:22;6.90;99.90
22765;DHT22;11549;50.852;3.816;2022-12-07T16:16:50;6.90;99.90
22765;DHT22;11549;50.852;3.816;2022-12-07T16:19:18;6.80;99.90
22765;DHT22;11549;50.852;3.816;2022-12-07T16:21:47;6.70;99.90
22765;DHT22;11549;50.852;3.816;2022-12-07T16:24:15;6.70;99.90
22765;DHT22;11549;50.852;3.816;2022-12-07T16:26:44;6.70;99.90
22765;DHT22;11549;50.852;3.816;2022-12-07T16:29:16;6.70;99.90
22765;DHT22;11549;50.852;3.816;2022-12-07T16:31:47;6.70;99.90
22765;DHT22;11549;50.852;3.816;2022-12-07T16:34:15;6.60;99.90
22765;DHT22;11549;50.852;3.816;2022-12-07T16:36:44;6.60;99.90
22765;DHT22;11549;50.852;3.816;2022-12-07T16:39:30;6.60;99.90
22765;DHT22;11549;50.852;3.816;2022-12-07T16:41:59;6.60;99.90
22765;DHT22;11549;50.852;3.816;2022-12-07T16:44:27;6.60;99.90
22765;DHT22;11549;50.852;3.816;2022-12-07T16:46:57;6.70;99.90
22765;DHT22;11549;50.852;3.816;2022-12-07T16:49:26;6.60;99.90
22765;DHT22;11549;50.852;3.816;2022-12-07T16:51:55;6.60;99.90
22765;DHT22;11549;50.852;3.816;2022-12-07T16:54:44;6.50;99.90
22765;DHT22;11549;50.852;3.816;2022-12-07T16:57:12;6.60;99.90